sensor_id;sensor_type;location;lat;lon;timestamp;P1;durP1;ratioP1;P2;durP2;ratioP2
13927;SDS011;7036;50.834;4.718;2023-07-16T00:00:02;1.23;;;1.13;;
13927;SDS011;7036;50.834;4.718;2023-07-16T00:02:29;1.60;;;1.23;;
13927;SDS011;7036;50.834;4.718;2023-07-16T00:04:56;1.27;;;1.00;;
13927;SDS011;7036;50.834;4.718;2023-07-16T00:07:23;2.10;;;1.33;;
13927;SDS011;7036;50.834;4.718;2023-07-16T00:09:50;3.03;;;1.53;;
13927;SDS011;7036;50.834;4.718;2023-07-16T00:12:17;3.00;;;1.47;;
13927;SDS011;7036;50.834;4.718;2023-07-16T00:14:44;1.10;;;1.00;;
13927;SDS011;7036;50.834;4.718;2023-07-16T00:17:11;1.60;;;1.37;;
13927;SDS011;7036;50.834;4.718;2023-07-16T00:19:38;1.53;;;1.10;;
13927;SDS011;7036;50.834;4.718;2023-07-16T00:22:04;2.03;;;1.30;;
13927;SDS011;7036;50.834;4.718;2023-07-16T00:24:31;1.80;;;1.40;;
13927;SDS011;7036;50.834;4.718;2023-07-16T00:26:58;2.37;;;1.07;;
13927;SDS011;7036;50.834;4.718;2023-07-16T00:29:26;2.77;;;1.37;;
13927;SDS011;7036;50.834;4.718;2023-07-16T00:31:53;2.70;;;1.40;;
13927;SDS011;7036;50.834;4.718;2023-07-16T00:34:20;1.73;;;1.23;;
13927;SDS011;7036;50.834;4.718;2023-07-16T00:36:47;1.57;;;1.30;;
13927;SDS011;7036;50.834;4.718;2023-07-16T00:39:14;2.33;;;1.10;;
13927;SDS011;7036;50.834;4.718;2023-07-16T00:41:41;1.60;;;1.20;;
13927;SDS011;7036;50.834;4.718;2023-07-16T00:44:07;1.57;;;1.17;;
13927;SDS011;7036;50.834;4.718;2023-07-16T00:46:34;2.33;;;1.73;;
13927;SDS011;7036;50.834;4.718;2023-07-16T00:49:01;1.77;;;1.20;;
13927;SDS011;7036;50.834;4.718;2023-07-16T00:51:28;1.77;;;1.50;;
13927;SDS011;7036;50.834;4.718;2023-07-16T00:53:55;2.57;;;1.20;;
13927;SDS011;7036;50.834;4.718;2023-07-16T00:56:22;2.03;;;1.10;;
13927;SDS011;7036;50.834;4.718;2023-07-16T00:58:49;2.50;;;1.13;;
13927;SDS011;7036;50.834;4.718;2023-07-16T01:01:16;2.23;;;1.23;;
13927;SDS011;7036;50.834;4.718;2023-07-16T01:03:43;2.90;;;1.30;;
13927;SDS011;7036;50.834;4.718;2023-07-16T01:06:11;2.23;;;1.17;;
13927;SDS011;7036;50.834;4.718;2023-07-16T01:08:49;3.40;;;1.73;;
13927;SDS011;7036;50.834;4.718;2023-07-16T01:11:13;2.00;;;1.50;;
13927;SDS011;7036;50.834;4.718;2023-07-16T01:13:40;1.70;;;1.27;;
13927;SDS011;7036;50.834;4.718;2023-07-16T01:16:07;1.40;;;1.00;;
13927;SDS011;7036;50.834;4.718;2023-07-16T01:18:34;1.30;;;1.10;;
13927;SDS011;7036;50.834;4.718;2023-07-16T01:21:00;2.33;;;1.50;;
13927;SDS011;7036;50.834;4.718;2023-07-16T01:29:12;2.20;;;1.50;;
13927;SDS011;7036;50.834;4.718;2023-07-16T01:31:41;2.57;;;1.70;;
13927;SDS011;7036;50.834;4.718;2023-07-16T01:34:08;1.80;;;1.53;;
13927;SDS011;7036;50.834;4.718;2023-07-16T01:36:36;2.90;;;1.60;;
13927;SDS011;7036;50.834;4.718;2023-07-16T01:39:03;1.50;;;1.20;;
13927;SDS011;7036;50.834;4.718;2023-07-16T01:41:30;2.13;;;1.30;;
13927;SDS011;7036;50.834;4.718;2023-07-16T01:43:56;2.07;;;1.20;;
13927;SDS011;7036;50.834;4.718;2023-07-16T01:46:23;2.17;;;1.10;;
13927;SDS011;7036;50.834;4.718;2023-07-16T01:48:50;2.53;;;1.47;;
13927;SDS011;7036;50.834;4.718;2023-07-16T01:51:17;3.83;;;1.30;;
13927;SDS011;7036;50.834;4.718;2023-07-16T01:53:44;1.47;;;1.23;;
13927;SDS011;7036;50.834;4.718;2023-07-16T01:56:11;4.03;;;1.30;;
13927;SDS011;7036;50.834;4.718;2023-07-16T01:58:38;1.93;;;1.20;;
13927;SDS011;7036;50.834;4.718;2023-07-16T02:01:06;1.87;;;1.40;;
13927;SDS011;7036;50.834;4.718;2023-07-16T02:03:32;1.57;;;1.13;;
13927;SDS011;7036;50.834;4.718;2023-07-16T02:05:59;1.50;;;1.40;;
13927;SDS011;7036;50.834;4.718;2023-07-16T02:08:26;3.70;;;1.37;;
13927;SDS011;7036;50.834;4.718;2023-07-16T02:10:53;1.50;;;1.40;;
13927;SDS011;7036;50.834;4.718;2023-07-16T02:13:20;1.97;;;1.30;;
13927;SDS011;7036;50.834;4.718;2023-07-16T02:15:47;2.07;;;1.30;;
13927;SDS011;7036;50.834;4.718;2023-07-16T02:18:13;1.70;;;1.30;;
13927;SDS011;7036;50.834;4.718;2023-07-16T02:20:40;3.50;;;1.50;;
13927;SDS011;7036;50.834;4.718;2023-07-16T02:23:07;1.87;;;1.20;;
13927;SDS011;7036;50.834;4.718;2023-07-16T02:25:34;5.17;;;1.70;;
13927;SDS011;7036;50.834;4.718;2023-07-16T02:28:01;2.20;;;1.40;;
13927;SDS011;7036;50.834;4.718;2023-07-16T02:30:28;1.67;;;1.43;;
13927;SDS011;7036;50.834;4.718;2023-07-16T02:32:55;3.23;;;1.50;;
13927;SDS011;7036;50.834;4.718;2023-07-16T02:35:22;2.10;;;1.60;;
13927;SDS011;7036;50.834;4.718;2023-07-16T02:37:49;1.27;;;1.17;;
13927;SDS011;7036;50.834;4.718;2023-07-16T02:40:16;2.33;;;1.53;;
13927;SDS011;7036;50.834;4.718;2023-07-16T02:42:43;1.73;;;1.30;;
13927;SDS011;7036;50.834;4.718;2023-07-16T02:45:10;2.33;;;1.50;;
13927;SDS011;7036;50.834;4.718;2023-07-16T02:47:37;2.77;;;1.33;;
13927;SDS011;7036;50.834;4.718;2023-07-16T02:50:04;2.53;;;1.40;;
13927;SDS011;7036;50.834;4.718;2023-07-16T02:52:31;2.17;;;1.47;;
13927;SDS011;7036;50.834;4.718;2023-07-16T02:54:58;1.50;;;1.30;;
13927;SDS011;7036;50.834;4.718;2023-07-16T02:57:25;2.13;;;1.53;;
13927;SDS011;7036;50.834;4.718;2023-07-16T02:59:52;3.40;;;1.53;;
13927;SDS011;7036;50.834;4.718;2023-07-16T03:02:19;2.00;;;1.43;;
13927;SDS011;7036;50.834;4.718;2023-07-16T03:04:46;2.20;;;1.60;;
13927;SDS011;7036;50.834;4.718;2023-07-16T03:07:14;2.13;;;1.40;;
13927;SDS011;7036;50.834;4.718;2023-07-16T03:09:40;2.23;;;1.60;;
13927;SDS011;7036;50.834;4.718;2023-07-16T03:12:07;2.20;;;1.77;;
13927;SDS011;7036;50.834;4.718;2023-07-16T03:14:35;2.20;;;1.47;;
13927;SDS011;7036;50.834;4.718;2023-07-16T03:17:02;1.70;;;1.60;;
13927;SDS011;7036;50.834;4.718;2023-07-16T03:19:29;2.37;;;1.70;;
13927;SDS011;7036;50.834;4.718;2023-07-16T03:21:57;3.10;;;1.40;;
13927;SDS011;7036;50.834;4.718;2023-07-16T03:24:23;3.60;;;1.60;;
13927;SDS011;7036;50.834;4.718;2023-07-16T03:26:50;3.67;;;1.53;;
13927;SDS011;7036;50.834;4.718;2023-07-16T03:29:17;3.10;;;1.73;;
13927;SDS011;7036;50.834;4.718;2023-07-16T03:31:44;3.77;;;1.90;;
13927;SDS011;7036;50.834;4.718;2023-07-16T03:34:11;3.97;;;1.70;;
13927;SDS011;7036;50.834;4.718;2023-07-16T03:36:38;4.87;;;1.60;;
13927;SDS011;7036;50.834;4.718;2023-07-16T03:39:05;1.93;;;1.60;;
13927;SDS011;7036;50.834;4.718;2023-07-16T03:41:32;1.93;;;1.40;;
13927;SDS011;7036;50.834;4.718;2023-07-16T03:43:59;3.17;;;1.80;;
13927;SDS011;7036;50.834;4.718;2023-07-16T03:46:26;3.17;;;1.73;;
13927;SDS011;7036;50.834;4.718;2023-07-16T03:48:53;1.80;;;1.40;;
13927;SDS011;7036;50.834;4.718;2023-07-16T03:51:20;2.63;;;1.67;;
13927;SDS011;7036;50.834;4.718;2023-07-16T03:53:47;2.50;;;2.00;;
13927;SDS011;7036;50.834;4.718;2023-07-16T03:56:13;5.93;;;2.10;;
13927;SDS011;7036;50.834;4.718;2023-07-16T03:58:40;2.03;;;1.70;;
13927;SDS011;7036;50.834;4.718;2023-07-16T04:01:07;2.80;;;1.63;;
13927;SDS011;7036;50.834;4.718;2023-07-16T04:03:34;3.37;;;1.80;;
13927;SDS011;7036;50.834;4.718;2023-07-16T04:06:05;2.20;;;1.77;;
13927;SDS011;7036;50.834;4.718;2023-07-16T04:08:31;1.83;;;1.50;;
13927;SDS011;7036;50.834;4.718;2023-07-16T04:10:58;2.60;;;1.77;;
13927;SDS011;7036;50.834;4.718;2023-07-16T04:13:25;1.90;;;1.60;;
13927;SDS011;7036;50.834;4.718;2023-07-16T04:15:52;3.07;;;2.00;;
13927;SDS011;7036;50.834;4.718;2023-07-16T04:18:21;3.33;;;2.10;;
13927;SDS011;7036;50.834;4.718;2023-07-16T04:20:48;2.17;;;1.33;;
13927;SDS011;7036;50.834;4.718;2023-07-16T04:23:15;2.43;;;1.70;;
13927;SDS011;7036;50.834;4.718;2023-07-16T04:25:42;2.37;;;1.70;;
13927;SDS011;7036;50.834;4.718;2023-07-16T04:28:10;2.00;;;1.87;;
13927;SDS011;7036;50.834;4.718;2023-07-16T04:30:36;3.30;;;2.10;;
13927;SDS011;7036;50.834;4.718;2023-07-16T04:33:03;2.90;;;1.93;;
13927;SDS011;7036;50.834;4.718;2023-07-16T04:35:30;4.50;;;2.40;;
13927;SDS011;7036;50.834;4.718;2023-07-16T04:37:56;2.80;;;1.87;;
13927;SDS011;7036;50.834;4.718;2023-07-16T04:40:23;1.80;;;1.70;;
13927;SDS011;7036;50.834;4.718;2023-07-16T04:42:50;2.30;;;1.80;;
13927;SDS011;7036;50.834;4.718;2023-07-16T04:45:17;4.53;;;2.10;;
13927;SDS011;7036;50.834;4.718;2023-07-16T04:47:44;1.87;;;1.63;;
13927;SDS011;7036;50.834;4.718;2023-07-16T04:50:11;3.00;;;1.87;;
13927;SDS011;7036;50.834;4.718;2023-07-16T04:52:38;2.80;;;2.13;;
13927;SDS011;7036;50.834;4.718;2023-07-16T04:55:05;3.13;;;2.43;;
13927;SDS011;7036;50.834;4.718;2023-07-16T04:57:32;2.63;;;1.80;;
13927;SDS011;7036;50.834;4.718;2023-07-16T04:59:59;3.27;;;1.90;;
13927;SDS011;7036;50.834;4.718;2023-07-16T05:02:26;3.80;;;2.17;;
13927;SDS011;7036;50.834;4.718;2023-07-16T05:04:53;3.07;;;2.20;;
13927;SDS011;7036;50.834;4.718;2023-07-16T05:07:20;5.73;;;2.30;;
13927;SDS011;7036;50.834;4.718;2023-07-16T05:09:47;4.67;;;2.50;;
13927;SDS011;7036;50.834;4.718;2023-07-16T05:12:14;4.60;;;2.40;;
13927;SDS011;7036;50.834;4.718;2023-07-16T05:14:44;3.73;;;2.20;;
13927;SDS011;7036;50.834;4.718;2023-07-16T05:17:10;4.43;;;2.60;;
13927;SDS011;7036;50.834;4.718;2023-07-16T05:19:37;3.50;;;2.20;;
13927;SDS011;7036;50.834;4.718;2023-07-16T05:22:04;4.90;;;2.13;;
13927;SDS011;7036;50.834;4.718;2023-07-16T05:24:31;5.40;;;2.13;;
13927;SDS011;7036;50.834;4.718;2023-07-16T05:26:58;2.33;;;2.00;;
13927;SDS011;7036;50.834;4.718;2023-07-16T05:29:25;4.93;;;2.40;;
13927;SDS011;7036;50.834;4.718;2023-07-16T05:31:52;3.87;;;2.30;;
13927;SDS011;7036;50.834;4.718;2023-07-16T05:34:19;2.03;;;1.83;;
13927;SDS011;7036;50.834;4.718;2023-07-16T05:36:46;3.53;;;2.23;;
13927;SDS011;7036;50.834;4.718;2023-07-16T05:39:13;3.43;;;2.40;;
13927;SDS011;7036;50.834;4.718;2023-07-16T05:41:40;2.60;;;2.40;;
13927;SDS011;7036;50.834;4.718;2023-07-16T05:44:07;3.80;;;2.40;;
13927;SDS011;7036;50.834;4.718;2023-07-16T05:46:34;3.07;;;2.63;;
13927;SDS011;7036;50.834;4.718;2023-07-16T05:49:01;2.67;;;2.30;;
13927;SDS011;7036;50.834;4.718;2023-07-16T05:51:27;2.63;;;2.33;;
13927;SDS011;7036;50.834;4.718;2023-07-16T05:53:54;3.13;;;2.70;;
13927;SDS011;7036;50.834;4.718;2023-07-16T05:56:21;4.77;;;2.73;;
13927;SDS011;7036;50.834;4.718;2023-07-16T05:58:48;4.80;;;2.77;;
13927;SDS011;7036;50.834;4.718;2023-07-16T06:01:15;3.67;;;2.63;;
13927;SDS011;7036;50.834;4.718;2023-07-16T06:03:42;4.10;;;2.73;;
13927;SDS011;7036;50.834;4.718;2023-07-16T06:06:09;2.90;;;2.60;;
13927;SDS011;7036;50.834;4.718;2023-07-16T06:08:36;6.90;;;2.77;;
13927;SDS011;7036;50.834;4.718;2023-07-16T06:11:03;3.53;;;2.67;;
13927;SDS011;7036;50.834;4.718;2023-07-16T06:13:30;2.70;;;2.50;;
13927;SDS011;7036;50.834;4.718;2023-07-16T06:15:56;3.47;;;3.17;;
13927;SDS011;7036;50.834;4.718;2023-07-16T06:18:24;3.97;;;2.60;;
13927;SDS011;7036;50.834;4.718;2023-07-16T06:20:51;2.57;;;2.37;;
13927;SDS011;7036;50.834;4.718;2023-07-16T06:23:18;2.77;;;2.57;;
13927;SDS011;7036;50.834;4.718;2023-07-16T06:25:45;4.47;;;2.97;;
13927;SDS011;7036;50.834;4.718;2023-07-16T06:28:12;3.70;;;2.70;;
13927;SDS011;7036;50.834;4.718;2023-07-16T06:30:39;3.00;;;2.60;;
13927;SDS011;7036;50.834;4.718;2023-07-16T06:33:06;3.30;;;3.00;;
13927;SDS011;7036;50.834;4.718;2023-07-16T06:35:34;2.97;;;2.63;;
13927;SDS011;7036;50.834;4.718;2023-07-16T06:38:00;3.33;;;3.03;;
13927;SDS011;7036;50.834;4.718;2023-07-16T06:40:28;3.40;;;2.57;;
13927;SDS011;7036;50.834;4.718;2023-07-16T06:42:54;4.97;;;2.80;;
13927;SDS011;7036;50.834;4.718;2023-07-16T06:45:21;3.37;;;3.07;;
13927;SDS011;7036;50.834;4.718;2023-07-16T06:47:48;5.50;;;2.70;;
13927;SDS011;7036;50.834;4.718;2023-07-16T06:50:15;3.30;;;2.70;;
13927;SDS011;7036;50.834;4.718;2023-07-16T06:52:41;2.90;;;2.60;;
13927;SDS011;7036;50.834;4.718;2023-07-16T06:55:09;3.70;;;2.63;;
13927;SDS011;7036;50.834;4.718;2023-07-16T06:57:36;3.93;;;2.57;;
13927;SDS011;7036;50.834;4.718;2023-07-16T07:00:03;2.93;;;2.70;;
13927;SDS011;7036;50.834;4.718;2023-07-16T07:02:30;3.77;;;2.73;;
13927;SDS011;7036;50.834;4.718;2023-07-16T07:04:57;3.57;;;3.27;;
13927;SDS011;7036;50.834;4.718;2023-07-16T07:07:24;3.47;;;3.07;;
13927;SDS011;7036;50.834;4.718;2023-07-16T07:09:51;3.03;;;2.73;;
13927;SDS011;7036;50.834;4.718;2023-07-16T07:12:17;3.67;;;3.33;;
13927;SDS011;7036;50.834;4.718;2023-07-16T07:14:46;3.07;;;2.27;;
13927;SDS011;7036;50.834;4.718;2023-07-16T07:17:11;3.87;;;3.00;;
13927;SDS011;7036;50.834;4.718;2023-07-16T07:19:38;3.00;;;2.53;;
13927;SDS011;7036;50.834;4.718;2023-07-16T07:22:05;3.63;;;3.00;;
13927;SDS011;7036;50.834;4.718;2023-07-16T07:24:33;3.17;;;2.47;;
13927;SDS011;7036;50.834;4.718;2023-07-16T07:27:00;3.67;;;3.00;;
13927;SDS011;7036;50.834;4.718;2023-07-16T07:29:27;7.27;;;3.70;;
13927;SDS011;7036;50.834;4.718;2023-07-16T07:31:54;6.80;;;4.57;;
13927;SDS011;7036;50.834;4.718;2023-07-16T07:34:21;6.17;;;4.63;;
13927;SDS011;7036;50.834;4.718;2023-07-16T07:36:48;8.87;;;5.33;;
13927;SDS011;7036;50.834;4.718;2023-07-16T07:39:16;10.57;;;5.37;;
13927;SDS011;7036;50.834;4.718;2023-07-16T07:41:42;7.77;;;4.83;;
13927;SDS011;7036;50.834;4.718;2023-07-16T07:44:09;7.50;;;5.23;;
13927;SDS011;7036;50.834;4.718;2023-07-16T07:46:36;6.90;;;5.07;;
13927;SDS011;7036;50.834;4.718;2023-07-16T07:49:03;6.17;;;5.07;;
13927;SDS011;7036;50.834;4.718;2023-07-16T07:51:31;7.07;;;5.00;;
13927;SDS011;7036;50.834;4.718;2023-07-16T07:53:58;5.40;;;4.77;;
13927;SDS011;7036;50.834;4.718;2023-07-16T07:56:25;7.23;;;4.73;;
13927;SDS011;7036;50.834;4.718;2023-07-16T07:58:52;6.37;;;5.07;;
13927;SDS011;7036;50.834;4.718;2023-07-16T08:01:18;10.67;;;6.00;;
13927;SDS011;7036;50.834;4.718;2023-07-16T08:03:45;7.93;;;5.30;;
13927;SDS011;7036;50.834;4.718;2023-07-16T08:06:12;9.80;;;5.43;;
13927;SDS011;7036;50.834;4.718;2023-07-16T08:08:39;7.37;;;4.87;;
13927;SDS011;7036;50.834;4.718;2023-07-16T08:11:06;8.13;;;5.60;;
13927;SDS011;7036;50.834;4.718;2023-07-16T08:13:33;6.17;;;4.87;;
13927;SDS011;7036;50.834;4.718;2023-07-16T08:16:00;10.40;;;5.03;;
13927;SDS011;7036;50.834;4.718;2023-07-16T08:18:27;8.20;;;5.17;;
13927;SDS011;7036;50.834;4.718;2023-07-16T08:20:54;8.37;;;5.43;;
13927;SDS011;7036;50.834;4.718;2023-07-16T08:23:22;8.20;;;4.97;;
13927;SDS011;7036;50.834;4.718;2023-07-16T08:25:49;8.43;;;5.30;;
13927;SDS011;7036;50.834;4.718;2023-07-16T08:28:15;6.97;;;5.27;;
13927;SDS011;7036;50.834;4.718;2023-07-16T08:30:42;8.20;;;5.60;;
13927;SDS011;7036;50.834;4.718;2023-07-16T08:33:09;10.10;;;5.27;;
13927;SDS011;7036;50.834;4.718;2023-07-16T08:35:36;8.60;;;5.50;;
13927;SDS011;7036;50.834;4.718;2023-07-16T08:38:03;7.73;;;5.23;;
13927;SDS011;7036;50.834;4.718;2023-07-16T08:40:30;9.93;;;5.47;;
13927;SDS011;7036;50.834;4.718;2023-07-16T08:42:57;13.60;;;6.10;;
13927;SDS011;7036;50.834;4.718;2023-07-16T08:45:24;8.10;;;5.50;;
13927;SDS011;7036;50.834;4.718;2023-07-16T08:47:51;8.73;;;5.70;;
13927;SDS011;7036;50.834;4.718;2023-07-16T08:50:18;6.80;;;4.93;;
13927;SDS011;7036;50.834;4.718;2023-07-16T08:52:45;10.93;;;5.47;;
13927;SDS011;7036;50.834;4.718;2023-07-16T08:55:12;12.40;;;5.70;;
13927;SDS011;7036;50.834;4.718;2023-07-16T08:57:39;9.10;;;4.63;;
13927;SDS011;7036;50.834;4.718;2023-07-16T09:00:06;9.20;;;5.40;;
13927;SDS011;7036;50.834;4.718;2023-07-16T09:02:33;7.83;;;4.83;;
13927;SDS011;7036;50.834;4.718;2023-07-16T09:05:00;7.60;;;5.00;;
13927;SDS011;7036;50.834;4.718;2023-07-16T09:07:27;7.37;;;5.27;;
13927;SDS011;7036;50.834;4.718;2023-07-16T09:09:57;10.27;;;5.80;;
13927;SDS011;7036;50.834;4.718;2023-07-16T09:12:26;8.03;;;5.00;;
13927;SDS011;7036;50.834;4.718;2023-07-16T09:14:53;7.83;;;5.53;;
13927;SDS011;7036;50.834;4.718;2023-07-16T09:17:23;10.60;;;5.73;;
13927;SDS011;7036;50.834;4.718;2023-07-16T09:19:52;6.77;;;5.23;;
13927;SDS011;7036;50.834;4.718;2023-07-16T09:22:17;7.07;;;4.70;;
13927;SDS011;7036;50.834;4.718;2023-07-16T09:24:47;7.33;;;4.80;;
13927;SDS011;7036;50.834;4.718;2023-07-16T09:27:13;7.97;;;4.63;;
13927;SDS011;7036;50.834;4.718;2023-07-16T09:29:40;7.23;;;5.00;;
13927;SDS011;7036;50.834;4.718;2023-07-16T09:32:07;14.97;;;6.13;;
13927;SDS011;7036;50.834;4.718;2023-07-16T09:34:34;10.27;;;4.97;;
13927;SDS011;7036;50.834;4.718;2023-07-16T09:37:01;6.83;;;4.70;;
13927;SDS011;7036;50.834;4.718;2023-07-16T09:39:28;8.93;;;5.00;;
13927;SDS011;7036;50.834;4.718;2023-07-16T09:41:55;8.57;;;5.50;;
13927;SDS011;7036;50.834;4.718;2023-07-16T09:44:22;9.83;;;5.27;;
13927;SDS011;7036;50.834;4.718;2023-07-16T09:46:49;6.07;;;4.60;;
13927;SDS011;7036;50.834;4.718;2023-07-16T09:49:16;8.73;;;5.03;;
13927;SDS011;7036;50.834;4.718;2023-07-16T09:51:43;7.90;;;4.50;;
13927;SDS011;7036;50.834;4.718;2023-07-16T09:54:12;7.50;;;4.20;;
13927;SDS011;7036;50.834;4.718;2023-07-16T09:56:38;5.97;;;4.40;;
13927;SDS011;7036;50.834;4.718;2023-07-16T09:59:05;8.97;;;5.50;;
13927;SDS011;7036;50.834;4.718;2023-07-16T10:01:33;7.93;;;5.27;;
13927;SDS011;7036;50.834;4.718;2023-07-16T10:04:09;7.03;;;5.37;;
13927;SDS011;7036;50.834;4.718;2023-07-16T10:06:28;5.87;;;4.70;;
13927;SDS011;7036;50.834;4.718;2023-07-16T10:08:54;10.20;;;5.50;;
13927;SDS011;7036;50.834;4.718;2023-07-16T10:11:21;12.13;;;5.63;;
13927;SDS011;7036;50.834;4.718;2023-07-16T10:13:49;7.60;;;5.23;;
13927;SDS011;7036;50.834;4.718;2023-07-16T10:16:21;6.63;;;4.40;;
13927;SDS011;7036;50.834;4.718;2023-07-16T10:18:51;7.73;;;4.80;;
13927;SDS011;7036;50.834;4.718;2023-07-16T10:21:21;8.73;;;4.90;;
13927;SDS011;7036;50.834;4.718;2023-07-16T10:23:44;7.57;;;4.67;;
13927;SDS011;7036;50.834;4.718;2023-07-16T10:26:13;7.37;;;4.87;;
13927;SDS011;7036;50.834;4.718;2023-07-16T10:28:38;6.57;;;4.73;;
13927;SDS011;7036;50.834;4.718;2023-07-16T10:31:05;5.50;;;4.87;;
13927;SDS011;7036;50.834;4.718;2023-07-16T10:33:32;8.07;;;4.83;;
13927;SDS011;7036;50.834;4.718;2023-07-16T10:35:59;10.87;;;5.10;;
13927;SDS011;7036;50.834;4.718;2023-07-16T10:38:26;10.80;;;5.20;;
13927;SDS011;7036;50.834;4.718;2023-07-16T10:40:53;11.40;;;5.77;;
13927;SDS011;7036;50.834;4.718;2023-07-16T10:43:20;17.07;;;5.60;;
13927;SDS011;7036;50.834;4.718;2023-07-16T10:45:46;12.93;;;5.67;;
13927;SDS011;7036;50.834;4.718;2023-07-16T10:48:13;19.37;;;5.60;;
13927;SDS011;7036;50.834;4.718;2023-07-16T10:50:40;9.70;;;5.20;;
13927;SDS011;7036;50.834;4.718;2023-07-16T10:53:07;9.30;;;5.63;;
13927;SDS011;7036;50.834;4.718;2023-07-16T10:55:34;12.33;;;5.70;;
13927;SDS011;7036;50.834;4.718;2023-07-16T10:58:03;9.37;;;5.33;;
13927;SDS011;7036;50.834;4.718;2023-07-16T11:00:28;8.00;;;5.57;;
13927;SDS011;7036;50.834;4.718;2023-07-16T11:02:55;8.73;;;5.20;;
13927;SDS011;7036;50.834;4.718;2023-07-16T11:05:22;7.50;;;5.20;;
13927;SDS011;7036;50.834;4.718;2023-07-16T11:07:49;7.27;;;4.67;;
13927;SDS011;7036;50.834;4.718;2023-07-16T11:10:16;6.97;;;4.73;;
13927;SDS011;7036;50.834;4.718;2023-07-16T11:12:42;9.03;;;5.23;;
13927;SDS011;7036;50.834;4.718;2023-07-16T11:15:10;5.97;;;4.27;;
13927;SDS011;7036;50.834;4.718;2023-07-16T11:17:37;8.83;;;5.23;;
13927;SDS011;7036;50.834;4.718;2023-07-16T11:20:03;7.23;;;5.13;;
13927;SDS011;7036;50.834;4.718;2023-07-16T11:22:36;6.40;;;4.90;;
13927;SDS011;7036;50.834;4.718;2023-07-16T11:24:57;6.80;;;4.57;;
13927;SDS011;7036;50.834;4.718;2023-07-16T11:27:28;7.03;;;4.90;;
13927;SDS011;7036;50.834;4.718;2023-07-16T11:29:55;6.03;;;4.57;;
13927;SDS011;7036;50.834;4.718;2023-07-16T11:32:30;9.83;;;4.63;;
13927;SDS011;7036;50.834;4.718;2023-07-16T11:34:57;8.30;;;4.50;;
13927;SDS011;7036;50.834;4.718;2023-07-16T11:37:27;9.53;;;4.23;;
13927;SDS011;7036;50.834;4.718;2023-07-16T11:39:50;8.60;;;4.40;;
13927;SDS011;7036;50.834;4.718;2023-07-16T11:42:27;6.87;;;4.60;;
13927;SDS011;7036;50.834;4.718;2023-07-16T11:44:50;8.90;;;5.13;;
13927;SDS011;7036;50.834;4.718;2023-07-16T11:47:17;7.87;;;5.27;;
13927;SDS011;7036;50.834;4.718;2023-07-16T11:49:44;8.60;;;4.87;;
13927;SDS011;7036;50.834;4.718;2023-07-16T11:52:11;5.90;;;4.67;;
13927;SDS011;7036;50.834;4.718;2023-07-16T11:54:38;7.73;;;4.43;;
13927;SDS011;7036;50.834;4.718;2023-07-16T11:57:05;6.10;;;5.03;;
13927;SDS011;7036;50.834;4.718;2023-07-16T11:59:32;7.60;;;4.63;;
13927;SDS011;7036;50.834;4.718;2023-07-16T12:01:59;6.77;;;4.33;;
13927;SDS011;7036;50.834;4.718;2023-07-16T12:04:26;8.40;;;5.77;;
13927;SDS011;7036;50.834;4.718;2023-07-16T12:06:53;11.50;;;5.70;;
13927;SDS011;7036;50.834;4.718;2023-07-16T12:09:20;8.03;;;4.90;;
13927;SDS011;7036;50.834;4.718;2023-07-16T12:11:48;5.17;;;4.40;;
13927;SDS011;7036;50.834;4.718;2023-07-16T12:14:14;4.83;;;3.57;;
13927;SDS011;7036;50.834;4.718;2023-07-16T12:16:41;8.40;;;5.13;;
13927;SDS011;7036;50.834;4.718;2023-07-16T12:19:08;10.40;;;6.03;;
13927;SDS011;7036;50.834;4.718;2023-07-16T12:21:35;6.73;;;4.37;;
13927;SDS011;7036;50.834;4.718;2023-07-16T12:24:02;8.83;;;4.83;;
13927;SDS011;7036;50.834;4.718;2023-07-16T12:26:29;8.33;;;5.20;;
13927;SDS011;7036;50.834;4.718;2023-07-16T12:28:56;9.07;;;5.30;;
13927;SDS011;7036;50.834;4.718;2023-07-16T12:31:23;7.63;;;5.17;;
13927;SDS011;7036;50.834;4.718;2023-07-16T12:33:50;5.73;;;4.30;;
13927;SDS011;7036;50.834;4.718;2023-07-16T12:36:17;12.40;;;4.63;;
13927;SDS011;7036;50.834;4.718;2023-07-16T12:38:44;7.97;;;5.17;;
13927;SDS011;7036;50.834;4.718;2023-07-16T12:41:12;9.30;;;5.60;;
13927;SDS011;7036;50.834;4.718;2023-07-16T12:43:38;7.03;;;4.53;;
13927;SDS011;7036;50.834;4.718;2023-07-16T12:46:05;7.23;;;4.80;;
13927;SDS011;7036;50.834;4.718;2023-07-16T12:48:32;7.97;;;5.10;;
13927;SDS011;7036;50.834;4.718;2023-07-16T12:50:59;9.50;;;5.10;;
13927;SDS011;7036;50.834;4.718;2023-07-16T12:53:26;6.67;;;4.60;;
13927;SDS011;7036;50.834;4.718;2023-07-16T12:55:53;7.53;;;4.60;;
13927;SDS011;7036;50.834;4.718;2023-07-16T12:58:20;10.50;;;4.93;;
13927;SDS011;7036;50.834;4.718;2023-07-16T13:00:47;7.80;;;4.90;;
13927;SDS011;7036;50.834;4.718;2023-07-16T13:03:14;9.20;;;4.87;;
13927;SDS011;7036;50.834;4.718;2023-07-16T13:05:41;8.30;;;4.50;;
13927;SDS011;7036;50.834;4.718;2023-07-16T13:08:08;6.47;;;4.60;;
13927;SDS011;7036;50.834;4.718;2023-07-16T13:10:35;7.03;;;4.57;;
13927;SDS011;7036;50.834;4.718;2023-07-16T13:13:02;5.43;;;4.40;;
13927;SDS011;7036;50.834;4.718;2023-07-16T13:15:29;7.20;;;4.60;;
13927;SDS011;7036;50.834;4.718;2023-07-16T13:17:56;5.83;;;4.53;;
13927;SDS011;7036;50.834;4.718;2023-07-16T13:20:23;5.70;;;4.17;;
13927;SDS011;7036;50.834;4.718;2023-07-16T13:22:50;5.40;;;4.23;;
13927;SDS011;7036;50.834;4.718;2023-07-16T13:25:16;7.10;;;4.10;;
13927;SDS011;7036;50.834;4.718;2023-07-16T13:27:43;6.70;;;4.33;;
13927;SDS011;7036;50.834;4.718;2023-07-16T13:30:10;7.10;;;4.43;;
13927;SDS011;7036;50.834;4.718;2023-07-16T13:32:37;6.77;;;4.40;;
13927;SDS011;7036;50.834;4.718;2023-07-16T13:35:05;8.10;;;4.93;;
13927;SDS011;7036;50.834;4.718;2023-07-16T13:37:32;8.07;;;4.20;;
13927;SDS011;7036;50.834;4.718;2023-07-16T13:39:59;8.17;;;5.30;;
13927;SDS011;7036;50.834;4.718;2023-07-16T13:42:25;7.00;;;4.97;;
13927;SDS011;7036;50.834;4.718;2023-07-16T13:44:52;7.50;;;4.67;;
13927;SDS011;7036;50.834;4.718;2023-07-16T13:47:19;7.17;;;3.73;;
13927;SDS011;7036;50.834;4.718;2023-07-16T13:49:46;8.47;;;5.20;;
13927;SDS011;7036;50.834;4.718;2023-07-16T13:52:13;5.17;;;4.17;;
13927;SDS011;7036;50.834;4.718;2023-07-16T13:54:40;7.27;;;4.63;;
13927;SDS011;7036;50.834;4.718;2023-07-16T13:57:08;6.60;;;3.90;;
13927;SDS011;7036;50.834;4.718;2023-07-16T13:59:34;5.53;;;4.13;;
13927;SDS011;7036;50.834;4.718;2023-07-16T14:02:01;6.93;;;4.00;;
13927;SDS011;7036;50.834;4.718;2023-07-16T14:04:28;6.47;;;3.97;;
13927;SDS011;7036;50.834;4.718;2023-07-16T14:06:55;5.33;;;4.27;;
13927;SDS011;7036;50.834;4.718;2023-07-16T14:09:22;6.10;;;4.27;;
13927;SDS011;7036;50.834;4.718;2023-07-16T14:11:49;7.17;;;3.97;;
13927;SDS011;7036;50.834;4.718;2023-07-16T14:14:16;5.43;;;4.40;;
13927;SDS011;7036;50.834;4.718;2023-07-16T14:16:43;4.13;;;3.47;;
13927;SDS011;7036;50.834;4.718;2023-07-16T14:19:10;5.23;;;3.57;;
13927;SDS011;7036;50.834;4.718;2023-07-16T14:21:36;4.30;;;3.90;;
13927;SDS011;7036;50.834;4.718;2023-07-16T14:24:04;6.77;;;3.63;;
13927;SDS011;7036;50.834;4.718;2023-07-16T14:26:31;5.63;;;3.37;;
13927;SDS011;7036;50.834;4.718;2023-07-16T14:28:58;6.67;;;4.00;;
13927;SDS011;7036;50.834;4.718;2023-07-16T14:31:25;4.23;;;3.63;;
13927;SDS011;7036;50.834;4.718;2023-07-16T14:33:52;6.47;;;3.87;;
13927;SDS011;7036;50.834;4.718;2023-07-16T14:36:18;4.93;;;3.57;;
13927;SDS011;7036;50.834;4.718;2023-07-16T14:38:45;5.27;;;3.20;;
13927;SDS011;7036;50.834;4.718;2023-07-16T14:41:12;6.50;;;4.20;;
13927;SDS011;7036;50.834;4.718;2023-07-16T14:43:39;6.97;;;3.90;;
13927;SDS011;7036;50.834;4.718;2023-07-16T14:46:06;5.77;;;4.03;;
13927;SDS011;7036;50.834;4.718;2023-07-16T14:48:33;3.97;;;3.03;;
13927;SDS011;7036;50.834;4.718;2023-07-16T14:51:00;6.83;;;3.90;;
13927;SDS011;7036;50.834;4.718;2023-07-16T14:53:27;4.13;;;3.20;;
13927;SDS011;7036;50.834;4.718;2023-07-16T14:55:54;4.73;;;3.63;;
13927;SDS011;7036;50.834;4.718;2023-07-16T14:58:20;4.77;;;3.57;;
13927;SDS011;7036;50.834;4.718;2023-07-16T15:00:47;5.50;;;3.40;;
13927;SDS011;7036;50.834;4.718;2023-07-16T15:03:14;7.03;;;3.87;;